createdAt,value
2022-11-05T00:01:57.706Z,12.70
2022-11-05T00:04:42.716Z,12.00
2022-11-05T00:07:37.050Z,13.75
2022-11-05T00:10:28.017Z,13.43
2022-11-05T00:13:15.965Z,12.30
2022-11-05T00:16:01.269Z,12.30
2022-11-05T00:18:27.785Z,12.43
2022-11-05T00:20:54.191Z,11.35
2022-11-05T00:23:39.649Z,10.65
2022-11-05T00:26:08.271Z,12.00
2022-11-05T00:28:35.708Z,10.18
2022-11-05T00:31:03.287Z,10.50
2022-11-05T00:33:29.790Z,10.50
2022-11-05T00:35:56.601Z,10.68
2022-11-05T00:38:23.131Z,11.15
2022-11-05T00:40:49.574Z,10.13
2022-11-05T00:43:34.939Z,10.02
2022-11-05T00:46:01.384Z,9.75
2022-11-05T00:48:46.221Z,10.93
2022-11-05T00:51:12.768Z,9.57
2022-11-05T00:53:39.269Z,9.23
2022-11-05T00:56:05.967Z,8.40
2022-11-05T00:58:32.503Z,8.25
2022-11-05T01:01:00.325Z,8.80
2022-11-05T01:03:29.387Z,8.10
2022-11-05T01:05:58.241Z,8.50
2022-11-05T01:08:27.044Z,8.05
2022-11-05T01:10:56.402Z,8.80
2022-11-05T01:13:28.361Z,8.55
2022-11-05T01:15:55.152Z,8.48
2022-11-05T01:18:23.215Z,7.53
2022-11-05T01:20:50.703Z,8.20
2022-11-05T01:23:17.687Z,7.93
2022-11-05T01:25:44.256Z,8.18
2022-11-05T01:28:10.708Z,8.77
2022-11-05T01:30:38.052Z,9.10
2022-11-05T01:33:04.501Z,8.52
2022-11-05T01:35:30.935Z,9.50
2022-11-05T01:37:57.349Z,8.25
2022-11-05T01:40:24.487Z,9.30
2022-11-05T01:42:51.268Z,9.57
2022-11-05T01:45:26.747Z,9.88
2022-11-05T01:48:15.614Z,10.13
2022-11-05T01:50:47.940Z,9.45
2022-11-05T01:53:29.500Z,10.75
2022-11-05T01:56:06.016Z,9.93
2022-11-05T01:58:39.672Z,11.02
2022-11-05T02:01:06.206Z,10.57
2022-11-05T02:03:32.758Z,10.98
2022-11-05T02:10:09.204Z,9.95
2022-11-05T02:12:39.285Z,9.95
2022-11-05T02:15:06.621Z,10.90
2022-11-05T02:17:44.749Z,12.48
2022-11-05T02:20:16.780Z,11.65
2022-11-05T02:23:20.529Z,11.35
2022-11-05T02:26:31.428Z,12.10
2022-11-05T02:29:28.292Z,11.85
2022-11-05T02:32:03.721Z,12.52
2022-11-05T02:34:42.280Z,12.02
2022-11-05T02:37:26.075Z,12.23
2022-11-05T02:40:06.568Z,11.63
2022-11-05T02:42:59.130Z,12.18
2022-11-05T02:45:43.842Z,12.20
2022-11-05T02:48:18.139Z,11.48
2022-11-05T02:51:05.537Z,11.50
2022-11-05T02:53:34.385Z,10.88
2022-11-05T02:56:09.994Z,11.90
2022-11-05T02:58:36.412Z,11.02
2022-11-05T03:01:06.790Z,11.10
2022-11-05T03:03:43.307Z,10.63
2022-11-05T03:06:43.912Z,11.43
2022-11-05T03:09:22.322Z,10.27
2022-11-05T03:12:10.339Z,9.95
2022-11-05T03:14:45.282Z,10.10
2022-11-05T03:17:31.197Z,10.40
2022-11-05T03:20:03.014Z,10.30
2022-11-05T03:22:36.858Z,9.65
2022-11-05T03:25:10.806Z,9.30
2022-11-05T03:27:40.885Z,9.68
2022-11-05T03:30:10.412Z,9.70
2022-11-05T03:32:41.996Z,8.48
2022-11-05T03:37:41.512Z,10.07
2022-11-05T03:40:10.368Z,10.15
2022-11-05T03:42:40.904Z,9.60
2022-11-05T03:45:14.477Z,8.57
2022-11-05T03:47:45.159Z,9.32
2022-11-05T03:50:21.827Z,9.50
2022-11-05T03:52:59.744Z,8.80
2022-11-05T03:55:35.434Z,9.63
2022-11-05T03:58:04.859Z,10.57
2022-11-05T04:00:31.824Z,9.18
2022-11-05T04:02:58.325Z,9.30
2022-11-05T04:05:24.897Z,9.45
2022-11-05T04:08:14.123Z,9.50
2022-11-05T04:10:59.636Z,9.15
2022-11-05T04:13:26.808Z,9.05
2022-11-05T04:16:13.650Z,9.02
2022-11-05T04:18:40.541Z,9.48
2022-11-05T04:21:26.832Z,9.20
2022-11-05T04:24:08.208Z,8.57
2022-11-05T04:26:39.870Z,9.07
2022-11-05T04:31:51.260Z,8.40
2022-11-05T04:34:18.894Z,9.25
2022-11-05T04:36:46.459Z,9.15
2022-11-05T04:39:12.887Z,9.23
2022-11-05T04:41:39.283Z,9.70
2022-11-05T04:44:05.868Z,8.15
2022-11-05T04:46:32.312Z,8.27
2022-11-05T04:48:58.787Z,8.57
2022-11-05T04:51:27.095Z,8.40
2022-11-05T04:53:54.034Z,8.68
2022-11-05T04:56:22.711Z,8.45
2022-11-05T04:58:49.906Z,8.73
2022-11-05T05:01:19.760Z,8.23
2022-11-05T05:03:50.922Z,8.75
2022-11-05T05:06:18.586Z,8.55
2022-11-05T05:08:47.079Z,7.88
2022-11-05T05:11:16.326Z,9.30
2022-11-05T05:13:42.799Z,9.40
2022-11-05T05:16:17.212Z,8.90
2022-11-05T05:18:46.362Z,7.97
2022-11-05T05:21:32.485Z,7.57
2022-11-05T05:23:59.036Z,7.93
2022-11-05T05:26:25.545Z,8.43
2022-11-05T05:28:53.563Z,7.88
2022-11-05T05:31:21.485Z,8.00
2022-11-05T05:33:48.424Z,6.97
2022-11-05T05:36:14.999Z,9.10
2022-11-05T05:38:41.448Z,8.05
2022-11-05T05:41:07.903Z,7.70
2022-11-05T05:43:34.471Z,6.68
2022-11-05T05:46:09.804Z,8.27
2022-11-05T05:48:36.436Z,7.60
2022-11-05T05:51:08.629Z,7.35
2022-11-05T05:53:35.719Z,6.88
2022-11-05T05:56:02.388Z,7.78
2022-11-05T05:58:33.300Z,6.97
2022-11-05T06:01:01.413Z,7.70
2022-11-05T06:03:27.849Z,7.15
2022-11-05T06:05:54.390Z,13.27
2022-11-05T06:08:20.914Z,12.65
2022-11-05T06:10:51.581Z,9.13
2022-11-05T06:13:18.220Z,8.47
2022-11-05T06:15:44.767Z,8.13
2022-11-05T06:18:11.168Z,7.18
2022-11-05T06:20:37.601Z,8.07
2022-11-05T06:23:04.069Z,7.70
2022-11-05T06:25:30.484Z,7.93
2022-11-05T06:27:56.933Z,6.90
2022-11-05T06:30:24.043Z,6.88
2022-11-05T06:32:50.487Z,8.77
2022-11-05T06:35:16.959Z,6.65
2022-11-05T06:37:43.397Z,7.28
2022-11-05T06:40:10.167Z,6.57
2022-11-05T06:42:36.628Z,6.65
2022-11-05T06:45:03.487Z,7.15
2022-11-05T06:47:29.973Z,8.10
2022-11-05T06:49:57.325Z,7.22
2022-11-05T06:52:23.776Z,7.07
2022-11-05T06:54:50.244Z,8.63
2022-11-05T06:57:16.626Z,7.05
2022-11-05T06:59:43.064Z,7.40
2022-11-05T07:02:11.752Z,7.22
2022-11-05T07:04:38.302Z,6.90
2022-11-05T07:07:04.853Z,6.50
2022-11-05T07:09:31.351Z,7.10
2022-11-05T07:11:57.766Z,6.18
2022-11-05T07:14:24.203Z,6.65
2022-11-05T07:16:50.802Z,7.22
2022-11-05T07:19:17.180Z,7.25
2022-11-05T07:21:43.621Z,7.55
2022-11-05T07:24:10.069Z,7.80
2022-11-05T07:26:36.472Z,7.13
2022-11-05T07:29:03.052Z,7.18
2022-11-05T07:31:29.595Z,7.10
2022-11-05T07:33:56.003Z,7.45
2022-11-05T07:36:22.435Z,7.45
2022-11-05T07:38:48.864Z,7.53
2022-11-05T07:41:15.316Z,7.85
2022-11-05T07:43:41.736Z,6.60
2022-11-05T07:46:13.516Z,8.02
2022-11-05T07:48:40.398Z,8.48
2022-11-05T07:51:06.897Z,8.27
2022-11-05T07:53:33.329Z,8.25
2022-11-05T07:55:59.848Z,8.35
2022-11-05T07:58:26.249Z,9.70
2022-11-05T08:00:52.803Z,9.00
2022-11-05T08:03:20.216Z,8.02
2022-11-05T08:05:47.980Z,8.73
2022-11-05T08:08:17.117Z,8.55
2022-11-05T08:10:43.839Z,7.60
2022-11-05T08:13:11.895Z,8.05
2022-11-05T08:15:39.189Z,8.27
2022-11-05T08:18:08.058Z,8.00
2022-11-05T08:20:35.147Z,6.88
2022-11-05T08:23:01.819Z,7.22
2022-11-05T08:25:28.840Z,6.43
2022-11-05T08:28:07.708Z,6.30
2022-11-05T08:30:34.952Z,5.97
2022-11-05T08:33:03.770Z,5.80
2022-11-05T08:35:30.199Z,5.90
2022-11-05T08:38:02.684Z,6.45
2022-11-05T08:40:31.467Z,6.38
2022-11-05T08:43:04.965Z,7.10
2022-11-05T08:45:32.154Z,6.63
2022-11-05T08:48:12.710Z,6.85
2022-11-05T08:50:39.563Z,5.95
2022-11-05T08:53:06.565Z,5.85
2022-11-05T08:55:33.262Z,5.65
2022-11-05T08:58:02.442Z,5.30
2022-11-05T09:00:31.050Z,5.90
2022-11-05T09:03:02.441Z,5.25
2022-11-05T09:05:30.918Z,5.22
2022-11-05T09:08:01.004Z,5.63
2022-11-05T09:10:28.471Z,4.20
2022-11-05T09:12:54.992Z,5.00
2022-11-05T09:15:23.087Z,4.30
2022-11-05T09:17:49.517Z,5.30
2022-11-05T09:20:15.974Z,4.20
2022-11-05T09:22:43.543Z,4.55
2022-11-05T09:25:10.306Z,3.90
2022-11-05T09:27:36.815Z,3.75
2022-11-05T09:30:05.303Z,3.47
2022-11-05T09:32:32.423Z,4.95
2022-11-05T09:35:01.122Z,4.40
2022-11-05T09:37:28.540Z,4.13
2022-11-05T09:39:55.718Z,4.53
2022-11-05T09:42:26.667Z,4.40
2022-11-05T09:45:02.870Z,3.50
2022-11-05T09:47:40.329Z,3.80
2022-11-05T09:50:13.422Z,4.05
2022-11-05T09:52:39.828Z,3.78
2022-11-05T09:55:17.381Z,3.75
2022-11-05T09:57:53.299Z,3.30
2022-11-05T10:00:20.091Z,3.35
2022-11-05T10:02:57.505Z,3.40
2022-11-05T10:05:25.364Z,3.88
2022-11-05T10:08:02.425Z,3.53
2022-11-05T10:10:41.562Z,3.38
2022-11-05T10:13:35.057Z,3.22
2022-11-05T10:16:08.261Z,2.42
2022-11-05T10:18:38.225Z,2.92
2022-11-05T10:21:05.432Z,2.45
2022-11-05T10:23:32.573Z,3.45
2022-11-05T10:26:03.822Z,3.10
2022-11-05T10:28:33.409Z,2.72
2022-11-05T10:31:03.685Z,3.03
2022-11-05T10:33:44.495Z,2.28
2022-11-05T10:36:24.650Z,3.08
2022-11-05T10:38:52.019Z,2.38
2022-11-05T10:41:35.778Z,3.03
2022-11-05T10:44:23.645Z,2.83
2022-11-05T10:47:02.320Z,3.10
2022-11-05T10:49:48.684Z,3.10
2022-11-05T10:52:38.035Z,2.55
2022-11-05T10:58:06.742Z,3.33
2022-11-05T11:00:33.147Z,2.30
2022-11-05T11:03:02.103Z,2.67
2022-11-05T11:05:40.730Z,2.88
2022-11-05T11:08:12.977Z,2.40
2022-11-05T11:10:49.888Z,2.33
2022-11-05T11:13:25.806Z,2.47
2022-11-05T11:15:52.984Z,2.65
2022-11-05T11:18:31.524Z,2.42
2022-11-05T11:21:23.164Z,2.60
2022-11-05T11:24:03.105Z,2.90
2022-11-05T11:26:36.784Z,3.33
2022-11-05T11:29:20.149Z,2.25
2022-11-05T11:31:46.753Z,2.50
2022-11-05T11:34:35.510Z,2.15
2022-11-05T11:37:19.043Z,2.25
2022-11-05T11:39:51.034Z,2.63
2022-11-05T11:44:51.229Z,2.42
2022-11-05T11:47:20.848Z,1.98
2022-11-05T11:49:53.638Z,2.30
2022-11-05T11:52:32.653Z,2.45
2022-11-05T11:55:11.279Z,2.63
2022-11-05T11:57:46.644Z,2.25
2022-11-05T12:00:14.183Z,2.33
2022-11-05T12:03:00.525Z,2.53
2022-11-05T12:05:45.814Z,2.20
2022-11-05T12:08:24.300Z,2.10
2022-11-05T12:11:13.055Z,2.50
2022-11-05T12:14:00.563Z,1.88
2022-11-05T12:16:35.118Z,2.55
2022-11-05T12:19:10.684Z,2.47
2022-11-05T12:22:12.459Z,2.30
2022-11-05T12:24:52.126Z,2.28
2022-11-05T12:27:26.896Z,1.80
2022-11-05T12:29:58.601Z,2.60
2022-11-05T12:32:37.503Z,2.38
2022-11-05T12:35:44.110Z,2.38
2022-11-05T12:38:16.339Z,2.20
2022-11-05T12:41:11.704Z,2.30
2022-11-05T12:43:56.886Z,3.53
2022-11-05T12:46:34.576Z,2.40
2022-11-05T12:49:03.940Z,3.72
2022-11-05T12:51:57.223Z,2.90
2022-11-05T12:54:43.996Z,2.20
2022-11-05T12:57:13.253Z,2.00
2022-11-05T12:59:46.723Z,2.10
2022-11-05T13:02:45.119Z,2.25
2022-11-05T13:05:33.111Z,2.58
2022-11-05T13:08:11.768Z,2.13
2022-11-05T13:11:12.776Z,1.92
2022-11-05T13:14:08.112Z,1.77
2022-11-05T13:16:40.709Z,2.15
2022-11-05T13:19:21.241Z,1.98
2022-11-05T13:21:54.647Z,2.38
2022-11-05T13:24:25.409Z,2.47
2022-11-05T13:27:16.525Z,2.33
2022-11-05T13:29:51.383Z,2.80
2022-11-05T13:32:38.595Z,2.45
2022-11-05T13:35:14.099Z,1.77
2022-11-05T13:38:03.267Z,2.47
2022-11-05T13:40:51.411Z,2.25
2022-11-05T13:43:39.405Z,2.35
2022-11-05T13:46:23.985Z,2.40
2022-11-05T13:49:06.241Z,2.70
2022-11-05T13:51:48.774Z,2.10
2022-11-05T13:54:42.868Z,2.13
2022-11-05T13:57:16.903Z,2.58
2022-11-05T14:00:01.497Z,2.30
2022-11-05T14:02:51.298Z,2.60
2022-11-05T14:05:39.986Z,2.20
2022-11-05T14:08:16.396Z,1.92
2022-11-05T14:10:56.293Z,2.33
2022-11-05T14:13:31.675Z,2.72
2022-11-05T14:16:22.593Z,2.30
2022-11-05T14:18:52.100Z,3.60
2022-11-05T14:21:27.875Z,4.18
2022-11-05T14:23:59.588Z,2.40
2022-11-05T14:29:03.979Z,2.15
2022-11-05T14:31:54.429Z,2.10
2022-11-05T14:34:40.387Z,2.72
2022-11-05T14:37:09.725Z,2.13
2022-11-05T14:39:36.719Z,2.35
2022-11-05T14:42:19.368Z,2.13
2022-11-05T14:45:23.658Z,2.28
2022-11-05T14:47:55.274Z,2.33
2022-11-05T14:55:31.315Z,1.95
2022-11-05T14:57:57.681Z,2.17
2022-11-05T15:00:40.413Z,2.22
2022-11-05T15:03:33.647Z,2.85
2022-11-05T15:06:23.374Z,3.45
2022-11-05T15:08:49.717Z,2.67
2022-11-05T15:11:21.420Z,2.75
2022-11-05T15:16:41.946Z,4.60
2022-11-05T15:19:23.052Z,5.88
2022-11-05T15:21:49.628Z,2.90
2022-11-05T15:24:19.147Z,3.03
2022-11-05T15:27:00.457Z,2.88
2022-11-05T15:29:30.343Z,2.92
2022-11-05T15:31:56.925Z,2.92
2022-11-05T15:34:28.904Z,3.80
2022-11-05T15:36:56.664Z,3.05
2022-11-05T15:39:40.417Z,3.90
2022-11-05T15:42:24.657Z,3.08
2022-11-05T15:44:56.437Z,3.20
2022-11-05T15:47:31.184Z,2.90
2022-11-05T15:50:01.231Z,2.70
2022-11-05T15:52:42.318Z,3.17
2022-11-05T15:55:14.821Z,3.97
2022-11-05T15:57:50.259Z,5.43
2022-11-05T16:00:26.195Z,4.15
2022-11-05T16:03:15.382Z,4.28
2022-11-05T16:05:46.432Z,3.85
2022-11-05T16:08:22.377Z,5.15
2022-11-05T16:10:52.215Z,4.72
2022-11-05T16:13:34.777Z,4.30
2022-11-05T16:16:07.095Z,3.67
2022-11-05T16:18:38.570Z,4.10
2022-11-05T16:21:12.183Z,3.55
2022-11-05T16:23:55.425Z,4.10
2022-11-05T16:27:01.068Z,3.90
2022-11-05T16:29:24.008Z,3.95
2022-11-05T16:31:52.480Z,3.55
2022-11-05T16:34:37.779Z,3.22
2022-11-05T16:37:06.739Z,3.70
2022-11-05T16:39:33.282Z,4.07
2022-11-05T16:41:59.828Z,4.63
2022-11-05T16:44:26.328Z,3.70
2022-11-05T16:46:52.774Z,4.38
2022-11-05T16:49:19.195Z,5.28
2022-11-05T16:51:45.604Z,4.20
2022-11-05T16:54:12.038Z,3.97
2022-11-05T16:56:39.920Z,5.07
2022-11-05T16:59:09.372Z,5.18
2022-11-05T17:01:39.294Z,4.68
2022-11-05T17:04:05.932Z,5.30
2022-11-05T17:06:32.338Z,4.20
2022-11-05T17:08:58.777Z,4.60
2022-11-05T17:11:25.283Z,4.97
2022-11-05T17:13:51.715Z,6.60
2022-11-05T17:16:18.176Z,4.88
2022-11-05T17:18:44.919Z,4.95
2022-11-05T17:21:12.595Z,4.80
2022-11-05T17:23:39.051Z,5.18
2022-11-05T17:26:09.289Z,5.10
2022-11-05T17:28:36.231Z,4.15
2022-11-05T17:31:04.978Z,4.40
2022-11-05T17:33:31.977Z,4.70
2022-11-05T17:35:58.676Z,4.38
2022-11-05T17:38:26.221Z,5.07
2022-11-05T17:40:53.042Z,5.90
2022-11-05T17:43:20.397Z,6.72
2022-11-05T17:45:55.818Z,5.38
2022-11-05T17:48:24.004Z,7.47
2022-11-05T17:50:51.014Z,6.45
2022-11-05T17:53:18.997Z,6.30
2022-11-05T17:55:46.892Z,5.55
2022-11-05T17:58:13.549Z,5.85
2022-11-05T18:00:41.609Z,6.35
2022-11-05T18:03:09.660Z,5.20
2022-11-05T18:05:36.362Z,5.00
2022-11-05T18:08:02.961Z,7.03
2022-11-05T18:10:29.461Z,6.57
2022-11-05T18:12:56.251Z,8.13
2022-11-05T18:15:22.865Z,9.40
2022-11-05T18:17:49.307Z,8.57
2022-11-05T18:20:19.122Z,9.52
2022-11-05T18:22:48.423Z,9.00
2022-11-05T18:25:14.918Z,8.27
2022-11-05T18:27:41.819Z,8.55
2022-11-05T18:30:09.612Z,8.68
2022-11-05T18:32:36.534Z,8.70
2022-11-05T18:35:03.165Z,7.85
2022-11-05T18:37:29.596Z,8.93
2022-11-05T18:39:55.992Z,8.95
2022-11-05T18:42:22.461Z,9.10
2022-11-05T18:44:48.935Z,9.63
2022-11-05T18:47:15.657Z,9.55
2022-11-05T18:49:42.066Z,9.10
2022-11-05T18:52:08.822Z,9.57
2022-11-05T18:54:35.262Z,10.25
2022-11-05T18:57:02.224Z,9.60
2022-11-05T18:59:38.717Z,10.07
2022-11-05T19:02:06.629Z,9.80
2022-11-05T19:04:35.919Z,10.27
2022-11-05T19:07:05.181Z,10.45
2022-11-05T19:09:35.899Z,10.95
2022-11-05T19:12:02.838Z,9.95
2022-11-05T19:14:30.140Z,9.77
2022-11-05T19:16:57.499Z,8.73
2022-11-05T19:19:24.000Z,9.73
2022-11-05T19:21:51.031Z,10.25
2022-11-05T19:24:17.592Z,9.57
2022-11-05T19:26:44.501Z,9.85
2022-11-05T19:29:10.971Z,9.98
2022-11-05T19:31:37.440Z,9.23
2022-11-05T19:34:05.422Z,9.68
2022-11-05T19:36:33.280Z,10.82
2022-11-05T19:39:06.362Z,10.30
2022-11-05T19:41:33.006Z,10.60
2022-11-05T19:44:01.482Z,9.40
2022-11-05T19:46:29.659Z,10.63
2022-11-05T19:48:56.997Z,10.95
2022-11-05T19:51:26.152Z,11.18
2022-11-05T19:53:53.576Z,10.90
2022-11-05T19:56:22.710Z,9.52
2022-11-05T19:58:49.555Z,10.57
2022-11-05T20:01:17.786Z,11.50
2022-11-05T20:03:44.540Z,9.38
2022-11-05T20:06:13.712Z,8.20
2022-11-05T20:08:59.687Z,8.80
2022-11-05T20:11:27.479Z,8.13
2022-11-05T20:13:53.867Z,8.35
2022-11-05T20:16:26.561Z,8.50
2022-11-05T20:18:53.278Z,7.85
2022-11-05T20:21:20.157Z,8.25
2022-11-05T20:23:46.985Z,8.95
2022-11-05T20:26:14.237Z,9.60
2022-11-05T20:28:42.852Z,8.55
2022-11-05T20:31:14.030Z,9.48
2022-11-05T20:33:41.423Z,9.33
2022-11-05T20:36:12.173Z,9.65
2022-11-05T20:38:38.667Z,9.30
2022-11-05T20:41:12.651Z,9.35
2022-11-05T20:43:43.033Z,9.45
2022-11-05T20:46:13.309Z,10.52
2022-11-05T20:48:40.418Z,9.43
2022-11-05T20:51:10.015Z,8.73
2022-11-05T20:53:37.235Z,9.45
2022-11-05T20:56:07.774Z,7.72
2022-11-05T20:58:35.753Z,7.45
2022-11-05T21:01:03.057Z,7.35
2022-11-05T21:03:29.950Z,7.43
2022-11-05T21:05:59.932Z,7.47
2022-11-05T21:08:27.629Z,7.80
2022-11-05T21:10:54.963Z,8.25
2022-11-05T21:13:21.763Z,7.57
2022-11-05T21:15:57.191Z,7.28
2022-11-05T21:18:26.361Z,7.10
2022-11-05T21:20:52.971Z,7.57
2022-11-05T21:23:20.018Z,6.68
2022-11-05T21:25:46.574Z,7.25
2022-11-05T21:28:14.489Z,8.15
2022-11-05T21:30:44.936Z,8.80
2022-11-05T21:33:12.362Z,12.80
2022-11-05T21:35:41.055Z,13.95
2022-11-05T21:38:07.692Z,17.30
2022-11-05T21:40:34.181Z,18.02
2022-11-05T21:43:00.683Z,18.05
2022-11-05T21:45:27.206Z,13.70
2022-11-05T21:47:53.773Z,9.57
2022-11-05T21:50:40.183Z,7.90
2022-11-05T21:53:26.988Z,8.18
2022-11-05T21:56:11.907Z,8.20
2022-11-05T21:58:57.082Z,7.80
2022-11-05T22:01:23.796Z,7.85
2022-11-05T22:03:50.292Z,8.60
2022-11-05T22:06:16.714Z,7.05
2022-11-05T22:08:43.137Z,7.75
2022-11-05T22:11:09.557Z,8.02
2022-11-05T22:13:35.989Z,8.02
2022-11-05T22:16:02.404Z,7.45
2022-11-05T22:18:28.890Z,7.95
2022-11-05T22:20:55.452Z,7.93
2022-11-05T22:23:21.911Z,7.47
2022-11-05T22:25:48.515Z,7.45
2022-11-05T22:28:15.102Z,7.68
2022-11-05T22:30:41.740Z,7.07
2022-11-05T22:33:08.155Z,7.38
2022-11-05T22:35:34.581Z,7.50
2022-11-05T22:38:01.097Z,7.63
2022-11-05T22:40:27.467Z,7.53
2022-11-05T22:42:54.050Z,7.72
2022-11-05T22:45:20.458Z,7.32
2022-11-05T22:47:46.857Z,7.55
2022-11-05T22:50:13.644Z,8.55
2022-11-05T22:52:40.202Z,8.13
2022-11-05T22:55:07.076Z,8.07
2022-11-05T22:57:33.555Z,7.28
2022-11-05T22:59:59.956Z,7.55
2022-11-05T23:02:26.435Z,8.52
2022-11-05T23:04:52.990Z,7.70
2022-11-05T23:07:38.065Z,7.20
2022-11-05T23:10:23.008Z,7.22
2022-11-05T23:12:49.418Z,7.25
2022-11-05T23:15:34.277Z,8.68
2022-11-05T23:18:19.466Z,8.13
2022-11-05T23:21:04.623Z,7.70
2022-11-05T23:23:49.831Z,6.70
2022-11-05T23:26:34.698Z,7.40
2022-11-05T23:29:01.105Z,7.28
2022-11-05T23:32:02.940Z,7.30
2022-11-05T23:34:30.353Z,7.00
2022-11-05T23:37:15.167Z,7.07
2022-11-05T23:39:42.992Z,6.53
2022-11-05T23:42:28.403Z,7.22
2022-11-05T23:45:14.859Z,6.35
2022-11-05T23:48:00.445Z,7.93
2022-11-05T23:50:27.060Z,7.75
2022-11-05T23:52:54.062Z,7.47
2022-11-05T23:55:21.512Z,9.70
2022-11-05T23:57:48.176Z,9.13
